createdAt,value
2023-03-02T00:02:25.229Z,21.17
2023-03-02T00:04:58.989Z,23.40
2023-03-02T00:07:34.126Z,21.53
2023-03-02T00:10:06.350Z,27.02
2023-03-02T00:12:38.088Z,25.40
2023-03-02T00:15:10.299Z,22.50
2023-03-02T00:17:42.205Z,26.63
2023-03-02T00:20:14.415Z,23.10
2023-03-02T00:22:46.916Z,29.47
2023-03-02T00:25:19.087Z,24.03
2023-03-02T00:27:50.793Z,24.10
2023-03-02T00:30:22.592Z,23.47
2023-03-02T00:32:54.389Z,24.43
2023-03-02T00:35:27.104Z,22.17
2023-03-02T00:37:58.824Z,23.80
2023-03-02T00:40:30.783Z,26.60
2023-03-02T00:43:02.568Z,25.95
2023-03-02T00:45:34.325Z,25.70
2023-03-02T00:48:06.342Z,24.13
2023-03-02T00:50:41.021Z,26.50
2023-03-02T00:53:12.753Z,25.80
2023-03-02T00:55:53.684Z,24.90
2023-03-02T00:58:30.544Z,25.17
2023-03-02T01:01:08.692Z,25.50
2023-03-02T01:03:40.400Z,25.42
2023-03-02T01:06:18.005Z,27.00
2023-03-02T01:08:50.085Z,22.77
2023-03-02T01:11:23.089Z,23.97
2023-03-02T01:13:54.808Z,25.27
2023-03-02T01:16:26.543Z,26.23
2023-03-02T01:18:58.326Z,28.27
2023-03-02T01:21:30.319Z,25.60
2023-03-02T01:24:02.143Z,21.90
2023-03-02T01:26:34.130Z,26.40
2023-03-02T01:29:06.109Z,24.40
2023-03-02T01:31:38.805Z,26.30
2023-03-02T01:34:10.753Z,25.43
2023-03-02T01:36:45.601Z,23.13
2023-03-02T01:39:17.453Z,31.02
2023-03-02T01:45:51.797Z,24.73
2023-03-02T01:48:29.263Z,26.03
2023-03-02T01:51:02.882Z,26.93
2023-03-02T01:53:37.230Z,27.67
2023-03-02T01:56:09.007Z,28.00
2023-03-02T01:58:40.776Z,29.05
2023-03-02T02:01:15.741Z,23.83
2023-03-02T02:03:50.600Z,26.33
2023-03-02T02:06:31.208Z,25.47
2023-03-02T02:09:05.221Z,25.70
2023-03-02T02:11:36.999Z,27.70
2023-03-02T02:14:08.957Z,24.53
2023-03-02T02:16:41.513Z,24.40
2023-03-02T02:19:34.609Z,24.80
2023-03-02T02:22:06.550Z,27.60
2023-03-02T02:24:53.348Z,26.97
2023-03-02T02:27:33.570Z,23.47
2023-03-02T02:30:07.269Z,25.63
2023-03-02T02:32:41.344Z,27.15
2023-03-02T02:35:21.375Z,26.33
2023-03-02T02:37:57.341Z,25.17
2023-03-02T02:40:53.839Z,27.10
2023-03-02T02:43:28.759Z,24.60
2023-03-02T02:46:01.635Z,25.70
2023-03-02T02:48:34.372Z,27.20
2023-03-02T02:51:08.833Z,27.17
2023-03-02T02:54:01.367Z,27.02
2023-03-02T02:56:36.478Z,27.17
2023-03-02T02:59:17.571Z,26.13
2023-03-02T03:01:49.977Z,24.33
2023-03-02T03:04:26.119Z,24.93
2023-03-02T03:07:00.656Z,25.03
2023-03-02T03:09:32.627Z,26.23
2023-03-02T03:12:08.658Z,26.90
2023-03-02T03:14:41.799Z,27.47
2023-03-02T03:17:13.707Z,28.07
2023-03-02T03:19:47.024Z,26.30
2023-03-02T03:22:18.808Z,25.60
2023-03-02T03:24:50.495Z,26.30
2023-03-02T03:27:22.196Z,29.87
2023-03-02T03:29:54.105Z,24.00
2023-03-02T03:32:25.984Z,26.43
2023-03-02T03:34:57.768Z,27.87
2023-03-02T03:37:29.721Z,27.70
2023-03-02T03:40:01.494Z,29.67
2023-03-02T03:42:33.355Z,28.70
2023-03-02T03:45:06.485Z,27.33
2023-03-02T03:47:38.299Z,26.20
2023-03-02T03:50:10.623Z,29.80
2023-03-02T03:52:42.318Z,29.93
2023-03-02T03:55:14.546Z,27.27
2023-03-02T03:57:46.363Z,25.83
2023-03-02T04:00:18.598Z,26.57
2023-03-02T04:02:50.957Z,25.30
2023-03-02T04:05:22.830Z,26.33
2023-03-02T04:07:54.601Z,24.50
2023-03-02T04:10:26.383Z,26.60
2023-03-02T04:12:58.204Z,22.10
2023-03-02T04:15:30.093Z,26.63
2023-03-02T04:18:02.042Z,27.30
2023-03-02T04:20:33.832Z,27.53
2023-03-02T04:23:05.616Z,28.80
2023-03-02T04:25:37.410Z,25.57
2023-03-02T04:28:09.131Z,25.43
2023-03-02T04:30:40.991Z,27.80
2023-03-02T04:33:12.736Z,26.40
2023-03-02T04:35:44.581Z,31.77
2023-03-02T04:38:16.467Z,26.37
2023-03-02T04:40:48.328Z,28.50
2023-03-02T04:43:19.980Z,29.58
2023-03-02T04:45:55.041Z,28.30
2023-03-02T04:48:27.082Z,30.57
2023-03-02T04:50:58.855Z,28.47
2023-03-02T04:53:30.640Z,23.87
2023-03-02T04:56:02.293Z,25.00
2023-03-02T04:58:34.029Z,30.57
2023-03-02T05:01:07.236Z,26.97
2023-03-02T05:03:38.996Z,26.10
2023-03-02T05:06:11.000Z,28.70
2023-03-02T05:08:43.984Z,23.40
2023-03-02T05:11:22.027Z,25.53
2023-03-02T05:13:57.343Z,28.77
2023-03-02T05:16:32.674Z,26.03
2023-03-02T05:19:07.143Z,26.10
2023-03-02T05:21:39.615Z,26.37
2023-03-02T05:24:12.753Z,26.43
2023-03-02T05:26:44.529Z,26.73
2023-03-02T05:29:16.263Z,27.17
2023-03-02T05:31:49.063Z,28.23
2023-03-02T05:34:20.906Z,26.50
2023-03-02T05:36:52.692Z,26.00
2023-03-02T05:39:24.488Z,29.98
2023-03-02T05:41:56.208Z,28.20
2023-03-02T05:44:27.960Z,27.63
2023-03-02T05:46:59.713Z,27.60
2023-03-02T05:49:31.488Z,27.10
2023-03-02T05:52:03.284Z,29.97
2023-03-02T05:54:35.002Z,26.50
2023-03-02T05:57:07.364Z,24.20
2023-03-02T05:59:39.096Z,26.80
2023-03-02T06:02:10.811Z,28.47
2023-03-02T06:04:44.384Z,27.00
2023-03-02T06:07:16.081Z,27.03
2023-03-02T06:09:47.761Z,29.07
2023-03-02T06:12:19.565Z,24.73
2023-03-02T06:14:51.309Z,26.07
2023-03-02T06:17:23.170Z,28.70
2023-03-02T06:19:54.886Z,24.00
2023-03-02T06:22:26.935Z,26.50
2023-03-02T06:24:58.607Z,25.33
2023-03-02T06:27:30.309Z,24.00
2023-03-02T06:30:02.383Z,24.23
2023-03-02T06:32:35.261Z,27.13
2023-03-02T06:35:07.977Z,26.90
2023-03-02T06:37:42.187Z,26.40
2023-03-02T06:40:15.368Z,24.50
2023-03-02T06:42:47.446Z,26.27
2023-03-02T06:45:19.313Z,23.80
2023-03-02T06:47:51.013Z,24.10
2023-03-02T06:50:22.905Z,28.60
2023-03-02T06:52:54.645Z,24.00
2023-03-02T06:55:27.004Z,25.50
2023-03-02T06:57:58.750Z,27.97
2023-03-02T07:00:30.558Z,28.20
2023-03-02T07:03:02.272Z,25.87
2023-03-02T07:05:33.961Z,23.53
2023-03-02T07:08:05.768Z,26.43
2023-03-02T07:10:37.991Z,26.33
2023-03-02T07:13:09.755Z,22.63
2023-03-02T07:15:41.595Z,24.77
2023-03-02T07:18:13.303Z,26.53
2023-03-02T07:20:44.996Z,25.87
2023-03-02T07:23:16.786Z,24.33
2023-03-02T07:25:48.596Z,26.83
2023-03-02T07:28:21.771Z,24.30
2023-03-02T07:30:54.137Z,26.92
2023-03-02T07:33:25.995Z,29.40
2023-03-02T07:35:57.960Z,26.03
2023-03-02T07:38:29.736Z,26.80
2023-03-02T07:41:05.669Z,25.77
2023-03-02T07:43:38.191Z,23.27
2023-03-02T07:46:10.436Z,23.93
2023-03-02T07:48:42.201Z,23.80
2023-03-02T07:51:13.944Z,26.13
2023-03-02T07:53:46.317Z,23.10
2023-03-02T07:56:18.752Z,23.50
2023-03-02T07:58:50.437Z,25.20
2023-03-02T08:01:22.274Z,26.27
2023-03-02T08:03:54.089Z,24.80
2023-03-02T08:06:25.826Z,23.77
2023-03-02T08:09:00.245Z,25.37
2023-03-02T08:11:32.579Z,25.10
2023-03-02T08:14:04.464Z,23.83
2023-03-02T08:16:36.260Z,24.63
2023-03-02T08:19:08.248Z,22.67
2023-03-02T08:21:40.045Z,24.23
2023-03-02T08:24:12.493Z,26.57
2023-03-02T08:26:44.192Z,25.87
2023-03-02T08:29:16.162Z,26.30
2023-03-02T08:31:47.997Z,23.53
2023-03-02T08:34:19.716Z,24.43
2023-03-02T08:36:51.410Z,26.63
2023-03-02T08:39:23.606Z,24.93
2023-03-02T08:41:55.451Z,26.10
2023-03-02T08:44:27.176Z,23.50
2023-03-02T08:46:58.926Z,23.50
2023-03-02T08:49:30.659Z,25.10
2023-03-02T08:52:02.411Z,26.07
2023-03-02T08:54:34.657Z,23.07
2023-03-02T08:57:11.467Z,25.10
2023-03-02T08:59:43.919Z,26.10
2023-03-02T09:02:15.699Z,26.20
2023-03-02T09:04:47.519Z,26.20
2023-03-02T09:07:19.322Z,26.02
2023-03-02T09:09:51.097Z,24.27
2023-03-02T09:12:22.827Z,23.90
2023-03-02T09:14:54.625Z,26.40
2023-03-02T09:17:26.288Z,24.00
2023-03-02T09:20:00.361Z,22.07
2023-03-02T09:22:32.085Z,25.47
2023-03-02T09:25:05.142Z,22.90
2023-03-02T09:27:36.836Z,23.50
2023-03-02T09:30:09.942Z,24.10
2023-03-02T09:32:42.039Z,26.00
2023-03-02T09:35:13.925Z,23.80
2023-03-02T09:37:45.773Z,22.50
2023-03-02T09:40:23.556Z,23.33
2023-03-02T09:43:08.900Z,22.87
2023-03-02T09:46:05.430Z,28.10
2023-03-02T09:49:13.745Z,25.00
2023-03-02T09:51:54.266Z,25.50
2023-03-02T09:54:26.179Z,25.30
2023-03-02T09:56:59.498Z,20.40
2023-03-02T09:59:33.240Z,22.37
2023-03-02T10:02:28.306Z,20.77
2023-03-02T10:05:04.397Z,25.70
2023-03-02T10:07:38.175Z,24.37
2023-03-02T10:10:10.005Z,22.67
2023-03-02T10:12:47.673Z,22.90
2023-03-02T10:15:35.696Z,23.23
2023-03-02T10:18:10.933Z,23.20
2023-03-02T10:20:51.581Z,21.40
2023-03-02T10:23:57.376Z,22.00
2023-03-02T10:26:42.908Z,21.80
2023-03-02T10:29:26.158Z,23.10
2023-03-02T10:32:23.605Z,24.10
2023-03-02T10:34:55.531Z,22.90
2023-03-02T10:37:30.798Z,22.37
2023-03-02T10:40:02.615Z,23.10
2023-03-02T10:42:37.784Z,23.03
2023-03-02T10:45:29.343Z,23.70
2023-03-02T10:48:09.150Z,21.07
2023-03-02T10:50:43.047Z,21.90
2023-03-02T10:53:18.774Z,23.53
2023-03-02T10:55:52.855Z,21.93
2023-03-02T10:58:33.482Z,22.87
2023-03-02T11:01:17.756Z,25.13
2023-03-02T11:04:01.780Z,24.20
2023-03-02T11:06:34.945Z,22.77
2023-03-02T11:09:07.549Z,23.53
2023-03-02T11:11:39.365Z,24.97
2023-03-02T11:14:16.609Z,22.30
2023-03-02T11:16:48.321Z,24.43
2023-03-02T11:19:31.040Z,21.70
2023-03-02T11:22:26.482Z,23.07
2023-03-02T11:25:01.752Z,23.00
2023-03-02T11:27:38.751Z,23.70
2023-03-02T11:30:16.142Z,24.60
2023-03-02T11:33:20.374Z,22.40
2023-03-02T11:35:59.178Z,22.80
2023-03-02T11:38:41.264Z,23.20
2023-03-02T11:41:29.687Z,23.77
2023-03-02T11:44:12.285Z,29.47
2023-03-02T11:46:48.700Z,25.23
2023-03-02T11:49:45.652Z,25.97
2023-03-02T11:52:20.499Z,23.20
2023-03-02T11:55:13.846Z,22.90
2023-03-02T12:00:43.301Z,21.70
2023-03-02T12:03:14.986Z,22.50
2023-03-02T12:06:00.776Z,24.00
2023-03-02T12:08:34.668Z,23.83
2023-03-02T12:11:17.763Z,24.17
2023-03-02T12:13:49.567Z,24.73
2023-03-02T12:16:36.228Z,22.57
2023-03-02T12:19:17.037Z,24.23
2023-03-02T12:22:09.814Z,23.43
2023-03-02T12:24:44.150Z,24.53
2023-03-02T12:27:16.565Z,24.60
2023-03-02T12:29:51.575Z,23.30
2023-03-02T12:32:28.070Z,22.80
2023-03-02T12:35:08.802Z,23.23
2023-03-02T12:38:01.208Z,24.00
2023-03-02T12:40:58.341Z,25.60
2023-03-02T12:43:38.100Z,24.30
2023-03-02T12:46:28.376Z,23.60
2023-03-02T12:49:27.348Z,24.60
2023-03-02T12:52:27.550Z,26.23
2023-03-02T12:55:20.119Z,25.25
2023-03-02T12:57:54.516Z,25.63
2023-03-02T13:00:30.140Z,25.20
2023-03-02T13:03:02.456Z,24.23
2023-03-02T13:05:35.965Z,28.83
2023-03-02T13:08:24.329Z,22.50
2023-03-02T13:11:01.854Z,24.33
2023-03-02T13:13:51.545Z,26.60
2023-03-02T13:16:31.234Z,26.03
2023-03-02T13:19:16.495Z,26.17
2023-03-02T13:21:48.567Z,28.23
2023-03-02T13:24:34.507Z,23.87
2023-03-02T13:27:17.731Z,24.47
2023-03-02T13:29:52.072Z,27.73
2023-03-02T13:32:35.119Z,25.33
2023-03-02T13:35:19.181Z,23.10
2023-03-02T13:38:01.572Z,25.30
2023-03-02T13:40:39.503Z,24.30
2023-03-02T13:43:29.365Z,24.90
2023-03-02T13:46:02.569Z,24.60
2023-03-02T13:48:34.600Z,25.03
2023-03-02T13:51:18.175Z,25.90
2023-03-02T13:53:56.956Z,24.90
2023-03-02T13:56:34.389Z,25.40
2023-03-02T13:59:14.531Z,26.57
2023-03-02T14:01:47.358Z,25.70
2023-03-02T14:04:24.353Z,25.20
2023-03-02T14:06:56.217Z,24.07
2023-03-02T14:09:28.188Z,24.97
2023-03-02T14:12:00.014Z,24.87
2023-03-02T14:14:38.856Z,25.43
2023-03-02T14:17:16.752Z,26.13
2023-03-02T14:19:52.596Z,27.10
2023-03-02T14:22:27.285Z,26.00
2023-03-02T14:24:58.977Z,26.10
2023-03-02T14:27:31.400Z,27.20
2023-03-02T14:30:18.170Z,24.87
2023-03-02T14:32:51.119Z,24.60
2023-03-02T14:35:24.920Z,25.60
2023-03-02T14:37:56.760Z,24.70
2023-03-02T14:40:28.631Z,23.40
2023-03-02T14:43:00.404Z,26.63
2023-03-02T14:45:32.141Z,26.52
2023-03-02T14:48:04.049Z,27.70
2023-03-02T14:50:40.545Z,27.53
2023-03-02T14:53:19.658Z,26.07
2023-03-02T14:55:51.414Z,26.30
2023-03-02T14:58:34.104Z,24.20
2023-03-02T15:01:05.863Z,25.17
2023-03-02T15:03:37.680Z,25.63
2023-03-02T15:06:26.999Z,25.80
2023-03-02T15:09:00.106Z,24.37
2023-03-02T15:11:32.226Z,27.80
2023-03-02T15:14:04.218Z,26.30
2023-03-02T15:16:36.016Z,26.90
2023-03-02T15:19:08.831Z,26.93
2023-03-02T15:21:44.694Z,25.60
2023-03-02T15:24:16.431Z,27.07
2023-03-02T15:26:49.102Z,25.43
2023-03-02T15:29:21.252Z,25.23
2023-03-02T15:31:53.221Z,25.57
2023-03-02T15:34:25.098Z,26.03
2023-03-02T15:36:56.801Z,26.20
2023-03-02T15:39:28.534Z,25.35
2023-03-02T15:42:01.069Z,27.90
2023-03-02T15:44:33.471Z,26.37
2023-03-02T15:47:05.696Z,26.23
2023-03-02T15:49:37.515Z,25.77
2023-03-02T15:52:11.255Z,24.43
2023-03-02T15:54:43.052Z,28.07
2023-03-02T15:57:15.150Z,27.13
2023-03-02T15:59:47.944Z,29.03
2023-03-02T16:02:19.692Z,26.20
2023-03-02T16:04:51.360Z,26.67
2023-03-02T16:07:23.041Z,27.87
2023-03-02T16:09:54.810Z,26.67
2023-03-02T16:12:26.614Z,28.48
2023-03-02T16:14:58.272Z,27.20
2023-03-02T16:17:30.004Z,25.27
2023-03-02T16:20:01.711Z,24.97
2023-03-02T16:22:33.382Z,28.50
2023-03-02T16:25:05.464Z,25.00
2023-03-02T16:27:37.180Z,25.20
2023-03-02T16:30:09.589Z,25.23
2023-03-02T16:32:41.508Z,26.90
2023-03-02T16:35:13.333Z,27.10
2023-03-02T16:37:45.127Z,25.50
2023-03-02T16:40:17.028Z,26.80
2023-03-02T16:42:49.025Z,26.70
2023-03-02T16:45:21.805Z,27.03
2023-03-02T16:47:53.709Z,26.80
2023-03-02T16:50:25.393Z,27.30
2023-03-02T16:52:58.207Z,28.30
2023-03-02T16:55:30.248Z,26.40
2023-03-02T16:58:02.006Z,27.17
2023-03-02T17:00:33.824Z,25.87
2023-03-02T17:03:06.309Z,27.37
2023-03-02T17:05:42.564Z,28.90
2023-03-02T17:08:15.752Z,28.17
2023-03-02T17:10:47.450Z,27.90
2023-03-02T17:13:19.262Z,26.20
2023-03-02T17:15:51.080Z,28.17
2023-03-02T17:18:23.192Z,28.70
2023-03-02T17:20:57.642Z,26.83
2023-03-02T17:23:31.171Z,32.23
2023-03-02T17:26:02.850Z,28.93
2023-03-02T17:28:34.718Z,28.67
2023-03-02T17:31:06.694Z,30.90
2023-03-02T17:33:38.843Z,27.13
2023-03-02T17:36:12.195Z,28.10
2023-03-02T17:38:44.018Z,29.37
2023-03-02T17:41:15.784Z,31.58
2023-03-02T17:43:47.547Z,30.40
2023-03-02T17:46:22.746Z,27.53
2023-03-02T17:48:56.990Z,30.03
2023-03-02T17:51:29.633Z,30.20
2023-03-02T17:54:01.400Z,28.60
2023-03-02T17:56:33.274Z,30.10
2023-03-02T17:59:05.457Z,27.53
2023-03-02T18:01:37.227Z,30.33
2023-03-02T18:04:08.943Z,27.87
2023-03-02T18:06:40.761Z,28.53
2023-03-02T18:09:12.581Z,28.63
2023-03-02T18:11:45.170Z,29.13
2023-03-02T18:14:19.998Z,29.03
2023-03-02T18:16:51.702Z,29.57
2023-03-02T18:19:23.389Z,26.90
2023-03-02T18:21:55.086Z,27.47
2023-03-02T18:24:26.756Z,31.17
2023-03-02T18:26:58.454Z,29.03
2023-03-02T18:29:30.554Z,28.73
2023-03-02T18:32:02.430Z,30.10
2023-03-02T18:34:34.246Z,28.03
2023-03-02T18:37:05.999Z,30.03
2023-03-02T18:39:37.883Z,27.00
2023-03-02T18:42:12.276Z,27.50
2023-03-02T18:44:44.322Z,27.43
2023-03-02T18:47:17.940Z,28.07
2023-03-02T18:49:49.844Z,28.67
2023-03-02T18:52:21.655Z,28.30
2023-03-02T18:54:57.717Z,25.80
2023-03-02T18:57:29.574Z,31.10
2023-03-02T19:00:02.167Z,30.58
2023-03-02T19:02:34.388Z,28.50
2023-03-02T19:05:06.280Z,33.20
2023-03-02T19:07:38.001Z,26.77
2023-03-02T19:10:10.445Z,31.60
2023-03-02T19:12:42.433Z,29.77
2023-03-02T19:15:14.287Z,29.57
2023-03-02T19:17:46.868Z,31.90
2023-03-02T19:20:20.896Z,30.50
2023-03-02T19:22:53.164Z,32.75
2023-03-02T19:25:25.011Z,34.40
2023-03-02T19:27:56.862Z,33.63
2023-03-02T19:30:28.708Z,31.10
2023-03-02T19:33:01.864Z,33.17
2023-03-02T19:35:34.237Z,30.50
2023-03-02T19:38:06.943Z,29.90
2023-03-02T19:40:38.821Z,30.20
2023-03-02T19:43:10.703Z,31.80
2023-03-02T19:45:42.428Z,28.23
2023-03-02T19:48:14.363Z,30.33
2023-03-02T19:50:46.160Z,29.17
2023-03-02T19:53:17.935Z,28.30
2023-03-02T19:55:51.373Z,28.47
2023-03-02T19:58:23.678Z,31.73
2023-03-02T20:00:55.776Z,27.60
2023-03-02T20:03:27.982Z,27.13
2023-03-02T20:05:59.809Z,28.30
2023-03-02T20:08:31.514Z,28.07
2023-03-02T20:11:03.327Z,29.53
2023-03-02T20:13:35.929Z,30.75
2023-03-02T20:16:08.645Z,30.00
2023-03-02T20:18:42.204Z,28.60
2023-03-02T20:21:14.005Z,31.30
2023-03-02T20:23:46.368Z,29.80
2023-03-02T20:26:18.629Z,28.27
2023-03-02T20:28:52.079Z,30.60
2023-03-02T20:31:24.859Z,31.20
2023-03-02T20:33:56.852Z,30.70
2023-03-02T20:36:32.073Z,30.90
2023-03-02T20:39:12.571Z,29.83
2023-03-02T20:41:45.440Z,27.80
2023-03-02T20:44:18.212Z,28.30
2023-03-02T20:46:57.174Z,30.40
2023-03-02T20:49:30.921Z,30.10
2023-03-02T20:52:03.625Z,32.80
2023-03-02T20:54:38.806Z,29.10
2023-03-02T20:57:17.131Z,31.07
2023-03-02T20:59:49.512Z,29.07
2023-03-02T21:02:21.322Z,32.57
2023-03-02T21:04:53.353Z,29.73
2023-03-02T21:07:25.230Z,29.60
2023-03-02T21:09:57.085Z,34.05
2023-03-02T21:12:28.902Z,32.70
2023-03-02T21:15:02.139Z,30.20
2023-03-02T21:17:33.967Z,29.00
2023-03-02T21:20:06.277Z,29.17
2023-03-02T21:22:38.323Z,28.20
2023-03-02T21:25:10.657Z,30.07
2023-03-02T21:27:43.834Z,30.30
2023-03-02T21:30:23.739Z,30.37
2023-03-02T21:32:56.159Z,28.03
2023-03-02T21:35:28.133Z,30.07
2023-03-02T21:38:04.763Z,30.23
2023-03-02T21:40:46.163Z,28.60
2023-03-02T21:43:18.339Z,26.80
2023-03-02T21:45:51.172Z,26.87
2023-03-02T21:48:23.236Z,28.70
2023-03-02T21:50:55.106Z,29.90
2023-03-02T21:53:26.896Z,29.53
2023-03-02T21:55:58.559Z,26.50
2023-03-02T21:58:30.437Z,26.77
2023-03-02T22:01:02.513Z,28.30
2023-03-02T22:03:34.340Z,29.00
2023-03-02T22:06:06.260Z,31.17
2023-03-02T22:08:39.219Z,25.53
2023-03-02T22:11:25.254Z,30.40
2023-03-02T22:13:59.181Z,29.70
2023-03-02T22:16:41.224Z,28.67
2023-03-02T22:19:39.754Z,27.17
2023-03-02T22:22:30.466Z,32.97
2023-03-02T22:25:02.517Z,28.40
2023-03-02T22:27:36.114Z,29.47
2023-03-02T22:30:37.561Z,27.00
2023-03-02T22:33:21.659Z,27.70
2023-03-02T22:36:01.827Z,27.27
2023-03-02T22:38:33.647Z,29.80
2023-03-02T22:41:12.955Z,30.40
2023-03-02T22:43:45.853Z,29.10
2023-03-02T22:46:20.559Z,29.70
2023-03-02T22:48:53.542Z,29.47
2023-03-02T22:51:30.457Z,29.13
2023-03-02T22:54:02.225Z,29.50
2023-03-02T22:56:42.535Z,29.87
2023-03-02T22:59:28.261Z,34.10
2023-03-02T23:02:13.044Z,31.97
2023-03-02T23:04:46.940Z,32.10
2023-03-02T23:07:21.357Z,29.70
2023-03-02T23:09:53.259Z,29.10
2023-03-02T23:12:28.281Z,28.10
2023-03-02T23:15:00.017Z,28.87
2023-03-02T23:17:36.254Z,27.80
2023-03-02T23:20:13.868Z,31.47
2023-03-02T23:22:45.723Z,29.57
2023-03-02T23:25:17.809Z,29.10
2023-03-02T23:27:49.470Z,29.07
2023-03-02T23:30:22.514Z,28.07
2023-03-02T23:32:54.208Z,31.17
2023-03-02T23:35:27.037Z,31.80
2023-03-02T23:37:59.412Z,30.47
2023-03-02T23:40:31.226Z,28.90
2023-03-02T23:43:03.026Z,29.73
2023-03-02T23:45:34.752Z,28.33
2023-03-02T23:48:06.604Z,29.40
2023-03-02T23:50:38.295Z,29.50
2023-03-02T23:53:10.326Z,30.07
2023-03-02T23:55:47.615Z,32.77
2023-03-02T23:58:19.460Z,30.00
